Time;durP1;ratioP1;P1;durP2;ratioP2;P2;SDS_P1;SDS_P2;PMS_P1;PMS_P2;Temp;Humidity;BMP_temperature;BMP_pressure;BME280_temperature;BME280_humidity;BME280_pressure;Samples;Min_cycle;Max_cycle;Signal;HPM_P1;HPM_P2
2024/02/17 00:01:58;;;;;;;16.70;9.38;;;;;;;;;;4934642;29;20026;-82
2024/02/17 00:04:24;;;;;;;19.58;9.10;;;;;;;;;;4942156;29;20361;-82
2024/02/17 00:06:50;;;;;;;19.77;9.27;;;;;;;;;;4935100;29;20042;-82
2024/02/17 00:09:16;;;;;;;16.45;8.77;;;;;;;;;;4933812;29;20117;-81
2024/02/17 00:11:41;;;;;;;19.15;10.15;;;;;;;;;;4924034;29;20089;-81
2024/02/17 00:14:07;;;;;;;15.55;9.15;;;;;;;;;;4926620;29;20039;-82
2024/02/17 00:16:33;;;;;;;18.42;9.73;;;;;;;;;;4947482;29;20106;-82
2024/02/17 00:18:58;;;;;;;18.70;9.65;;;;;;;;;;4952760;29;20027;-80
2024/02/17 00:21:24;;;;;;;17.40;9.60;;;;;;;;;;4942852;29;20091;-82
2024/02/17 00:23:50;;;;;;;15.52;9.65;;;;;;;;;;4934805;29;20107;-81
2024/02/17 00:26:16;;;;;;;17.58;9.85;;;;;;;;;;4954386;29;20046;-81
2024/02/17 00:28:42;;;;;;;17.65;10.65;;;;;;;;;;4971600;28;20031;-81
2024/02/17 00:31:08;;;;;;;17.08;9.48;;;;;;;;;;4973481;28;20066;-81
2024/02/17 00:33:33;;;;;;;16.27;10.23;;;;;;;;;;4942737;28;20466;-80
2024/02/17 00:36:01;;;;;;;15.95;10.15;;;;;;;;;;4942576;29;20502;-81
2024/02/17 00:38:27;;;;;;;16.75;10.23;;;;;;;;;;4949785;29;20052;-81
2024/02/17 00:40:53;;;;;;;20.75;10.55;;;;;;;;;;4913705;29;20054;-81
2024/02/17 00:43:19;;;;;;;18.20;11.38;;;;;;;;;;4941066;29;20055;-81
2024/02/17 00:45:48;;;;;;;20.60;11.35;;;;;;;;;;4922375;29;20459;-81
2024/02/17 00:48:14;;;;;;;16.98;10.80;;;;;;;;;;4927400;29;20053;-81
2024/02/17 00:50:40;;;;;;;17.38;10.63;;;;;;;;;;4961607;28;20031;-82
2024/02/17 00:53:05;;;;;;;18.67;11.80;;;;;;;;;;4932810;29;20035;-81
2024/02/17 00:55:31;;;;;;;18.55;12.20;;;;;;;;;;4933882;29;20041;-81
2024/02/17 00:57:56;;;;;;;19.67;11.38;;;;;;;;;;4940904;29;20521;-81
2024/02/17 01:00:22;;;;;;;18.00;12.07;;;;;;;;;;4939822;29;20031;-81
2024/02/17 01:02:47;;;;;;;17.73;11.85;;;;;;;;;;4936471;29;20028;-81
2024/02/17 01:05:13;;;;;;;20.23;13.38;;;;;;;;;;4937296;29;20110;-81
2024/02/17 01:07:39;;;;;;;20.70;12.52;;;;;;;;;;4952220;29;20049;-81
2024/02/17 01:10:05;;;;;;;19.55;13.13;;;;;;;;;;4953235;29;20574;-81
2024/02/17 01:12:30;;;;;;;20.05;13.23;;;;;;;;;;4921428;29;20086;-81
2024/02/17 01:14:56;;;;;;;21.13;12.75;;;;;;;;;;4939043;29;20039;-81
2024/02/17 01:17:22;;;;;;;22.42;12.98;;;;;;;;;;4918429;28;20028;-81
2024/02/17 01:19:47;;;;;;;21.05;13.00;;;;;;;;;;4958767;28;20126;-82
2024/02/17 01:22:13;;;;;;;21.75;13.60;;;;;;;;;;4923301;29;20391;-82
2024/02/17 01:24:41;;;;;;;21.50;13.15;;;;;;;;;;4952911;28;20034;-81
2024/02/17 01:27:07;;;;;;;20.13;12.02;;;;;;;;;;4948651;29;20031;-80
2024/02/17 01:29:32;;;;;;;17.67;11.90;;;;;;;;;;4964187;28;20028;-83
2024/02/17 01:31:58;;;;;;;16.92;11.48;;;;;;;;;;4942887;29;20043;-82
2024/02/17 01:34:24;;;;;;;17.08;11.52;;;;;;;;;;4963362;28;20028;-81
2024/02/17 01:36:49;;;;;;;16.05;10.68;;;;;;;;;;4949006;29;20395;-82
2024/02/17 01:39:15;;;;;;;15.50;10.85;;;;;;;;;;4934314;29;20114;-82
2024/02/17 01:41:41;;;;;;;16.25;10.77;;;;;;;;;;4942269;29;20031;-80
2024/02/17 01:44:07;;;;;;;17.60;11.20;;;;;;;;;;4973834;28;20042;-82
2024/02/17 01:46:32;;;;;;;17.67;11.38;;;;;;;;;;4922569;29;20032;-81
2024/02/17 01:48:58;;;;;;;18.85;11.55;;;;;;;;;;4938156;29;20095;-81
2024/02/17 01:51:25;;;;;;;15.77;10.20;;;;;;;;;;4922598;29;20032;-81
2024/02/17 01:53:51;;;;;;;13.30;9.10;;;;;;;;;;4936368;29;20036;-81
2024/02/17 01:56:20;;;;;;;15.77;9.25;;;;;;;;;;4925239;29;20042;-81
2024/02/17 01:58:47;;;;;;;12.75;8.98;;;;;;;;;;4932311;29;20027;-81
2024/02/17 02:01:13;;;;;;;15.80;10.00;;;;;;;;;;4935502;29;20038;-81
2024/02/17 02:03:40;;;;;;;16.40;9.82;;;;;;;;;;4907880;29;20023;-81
2024/02/17 02:06:06;;;;;;;13.65;9.15;;;;;;;;;;4927542;29;20032;-81
2024/02/17 02:08:32;;;;;;;13.25;9.02;;;;;;;;;;4931700;29;20043;-80
2024/02/17 02:11:00;;;;;;;14.35;9.32;;;;;;;;;;4920286;29;20126;-82
2024/02/17 02:13:26;;;;;;;13.87;9.10;;;;;;;;;;4919264;29;20050;-80
2024/02/17 02:15:52;;;;;;;17.58;10.57;;;;;;;;;;4936041;29;20046;-82
2024/02/17 02:18:18;;;;;;;15.73;9.40;;;;;;;;;;4898325;29;20031;-81
2024/02/17 02:20:45;;;;;;;13.60;9.40;;;;;;;;;;4897592;29;20039;-81
2024/02/17 02:23:11;;;;;;;13.13;8.90;;;;;;;;;;4925273;29;20028;-81
2024/02/17 02:25:37;;;;;;;16.02;8.75;;;;;;;;;;4926146;29;20028;-81
2024/02/17 02:28:02;;;;;;;14.45;9.05;;;;;;;;;;4948681;28;20499;-81
2024/02/17 02:30:28;;;;;;;14.13;9.05;;;;;;;;;;4938132;29;20035;-80
2024/02/17 02:33:00;;;;;;;14.65;9.65;;;;;;;;;;4936570;29;20075;-81
2024/02/17 02:35:25;;;;;;;15.23;9.60;;;;;;;;;;4920657;29;20028;-80
2024/02/17 02:37:51;;;;;;;14.50;9.38;;;;;;;;;;4920320;29;20131;-80
2024/02/17 02:40:16;;;;;;;13.48;8.73;;;;;;;;;;4920621;29;20050;-81
2024/02/17 02:42:42;;;;;;;14.95;9.38;;;;;;;;;;4917441;29;20036;-80
2024/02/17 02:45:08;;;;;;;14.25;8.68;;;;;;;;;;4952648;28;20086;-80
2024/02/17 02:47:33;;;;;;;15.30;9.77;;;;;;;;;;4933723;29;20043;-81
2024/02/17 02:49:59;;;;;;;13.38;8.45;;;;;;;;;;4933313;29;20107;-80
2024/02/17 02:52:25;;;;;;;13.77;8.82;;;;;;;;;;4901895;29;20510;-80
2024/02/17 02:54:51;;;;;;;12.55;9.27;;;;;;;;;;4901780;29;20080;-81
2024/02/17 02:57:17;;;;;;;13.75;9.13;;;;;;;;;;4918145;29;20032;-82
2024/02/17 02:59:43;;;;;;;13.55;9.32;;;;;;;;;;4918393;29;20083;-80
2024/02/17 03:02:08;;;;;;;13.93;8.25;;;;;;;;;;4900873;29;20079;-81
2024/02/17 03:04:34;;;;;;;14.50;9.35;;;;;;;;;;4934863;29;20027;-80
2024/02/17 03:07:00;;;;;;;16.40;8.55;;;;;;;;;;4936173;29;20027;-80
2024/02/17 03:09:25;;;;;;;16.02;9.20;;;;;;;;;;4936411;29;20032;-79
2024/02/17 03:11:51;;;;;;;11.50;8.07;;;;;;;;;;4936410;29;20083;-80
2024/02/17 03:14:17;;;;;;;16.67;9.93;;;;;;;;;;4955781;28;20031;-81
2024/02/17 03:16:42;;;;;;;14.32;9.18;;;;;;;;;;4904066;29;20138;-80
2024/02/17 03:19:08;;;;;;;14.07;9.25;;;;;;;;;;4903674;29;20027;-80
2024/02/17 03:21:34;;;;;;;16.00;9.95;;;;;;;;;;4920880;29;20103;-81
2024/02/17 03:24:00;;;;;;;12.95;8.40;;;;;;;;;;4901431;29;20040;-80
2024/02/17 03:26:25;;;;;;;13.05;8.40;;;;;;;;;;4885727;29;20068;-82
2024/02/17 03:28:51;;;;;;;13.98;8.85;;;;;;;;;;4901101;29;20043;-80
2024/02/17 03:31:17;;;;;;;13.68;8.20;;;;;;;;;;4900752;29;20055;-81
2024/02/17 03:33:42;;;;;;;12.85;8.63;;;;;;;;;;4917077;29;20039;-82
2024/02/17 03:36:08;;;;;;;13.75;8.55;;;;;;;;;;4904371;29;20031;-82
2024/02/17 03:38:33;;;;;;;14.98;8.63;;;;;;;;;;4905672;29;20046;-81
2024/02/17 03:40:59;;;;;;;13.40;8.63;;;;;;;;;;4935829;29;20479;-81
2024/02/17 03:43:25;;;;;;;13.93;8.55;;;;;;;;;;4951820;28;20028;-82
2024/02/17 03:45:51;;;;;;;14.15;9.30;;;;;;;;;;4904257;29;20399;-81
2024/02/17 03:48:16;;;;;;;15.52;8.98;;;;;;;;;;4934138;29;20039;-81
2024/02/17 03:50:42;;;;;;;15.48;8.73;;;;;;;;;;4935322;29;20036;-80
2024/02/17 03:53:08;;;;;;;14.35;8.68;;;;;;;;;;4935905;29;20094;-80
2024/02/17 03:55:34;;;;;;;14.75;9.13;;;;;;;;;;4935150;29;20028;-81
2024/02/17 03:57:59;;;;;;;13.23;8.95;;;;;;;;;;4935069;29;20031;-80
2024/02/17 04:00:25;;;;;;;13.95;8.10;;;;;;;;;;4919876;29;20083;-80
2024/02/17 04:02:50;;;;;;;14.70;9.25;;;;;;;;;;4935411;29;20136;-81
2024/02/17 04:05:16;;;;;;;15.13;8.70;;;;;;;;;;4937165;29;20123;-81
2024/02/17 04:07:42;;;;;;;14.35;8.55;;;;;;;;;;4935102;29;20118;-82
2024/02/17 04:10:08;;;;;;;14.20;8.48;;;;;;;;;;4935150;29;20114;-80
2024/02/17 04:12:37;;;;;;;16.02;8.80;;;;;;;;;;4939093;29;20504;-80
2024/02/17 04:15:06;;;;;;;12.73;8.00;;;;;;;;;;4932860;29;20036;-80
2024/02/17 04:17:32;;;;;;;;;;;;;;;;;;4916955;29;20036;-80
2024/02/17 04:19:57;;;;;;;13.77;8.10;;;;;;;;;;4916737;29;19911;-82
2024/02/17 04:22:24;;;;;;;16.27;9.07;;;;;;;;;;4926305;29;20039;-80
2024/02/17 04:24:50;;;;;;;16.27;8.98;;;;;;;;;;4953127;28;20032;-81
2024/02/17 04:27:15;;;;;;;17.45;9.32;;;;;;;;;;4938145;29;20035;-82
2024/02/17 04:29:41;;;;;;;18.63;8.98;;;;;;;;;;4935985;29;20036;-81
2024/02/17 04:32:07;;;;;;;14.57;8.68;;;;;;;;;;4936390;29;20488;-82
2024/02/17 04:34:32;;;;;;;14.63;8.70;;;;;;;;;;4936534;29;20043;-81
2024/02/17 04:36:58;;;;;;;17.55;8.77;;;;;;;;;;4935451;29;20099;-79
2024/02/17 04:39:23;;;;;;;14.70;8.25;;;;;;;;;;4935718;29;20523;-82
2024/02/17 04:41:49;;;;;;;12.93;8.10;;;;;;;;;;4919720;29;20032;-79
2024/02/17 04:44:15;;;;;;;15.32;8.85;;;;;;;;;;4920651;29;20455;-79
2024/02/17 04:46:40;;;;;;;13.88;9.05;;;;;;;;;;4936414;29;20120;-81
2024/02/17 04:49:06;;;;;;;16.58;9.40;;;;;;;;;;4920968;29;20036;-81
2024/02/17 04:51:31;;;;;;;14.40;9.38;;;;;;;;;;4957257;29;20083;-81
2024/02/17 04:53:57;;;;;;;17.00;10.07;;;;;;;;;;4937503;29;20522;-80
2024/02/17 04:56:22;;;;;;;16.98;9.10;;;;;;;;;;4953392;28;20068;-81
2024/02/17 04:58:48;;;;;;;16.17;9.65;;;;;;;;;;4956786;29;20110;-81
2024/02/17 05:01:14;;;;;;;16.08;9.48;;;;;;;;;;4956886;29;20480;-81
2024/02/17 05:03:39;;;;;;;17.17;9.65;;;;;;;;;;4941715;29;20027;-80
2024/02/17 05:06:05;;;;;;;16.23;9.23;;;;;;;;;;4944192;29;20030;-81
2024/02/17 05:08:30;;;;;;;16.58;9.45;;;;;;;;;;4943353;29;20090;-81
2024/02/17 05:10:57;;;;;;;14.93;9.65;;;;;;;;;;4944674;29;20531;-82
2024/02/17 05:13:23;;;;;;;17.92;9.32;;;;;;;;;;4950304;28;20536;-82
2024/02/17 05:15:49;;;;;;;19.80;9.30;;;;;;;;;;4948614;29;20046;-82
2024/02/17 05:18:15;;;;;;;15.18;8.43;;;;;;;;;;4966384;29;20031;-81
2024/02/17 05:20:40;;;;;;;12.98;8.05;;;;;;;;;;4947426;29;20120;-82
2024/02/17 05:23:06;;;;;;;15.10;8.38;;;;;;;;;;4942467;29;20111;-81
2024/02/17 05:25:31;;;;;;;16.20;9.50;;;;;;;;;;4930029;29;20499;-81
2024/02/17 05:27:58;;;;;;;15.98;9.48;;;;;;;;;;4925950;29;20059;-80
2024/02/17 05:30:23;;;;;;;17.80;9.23;;;;;;;;;;4942362;29;20450;-81
2024/02/17 05:32:49;;;;;;;12.88;8.40;;;;;;;;;;4960151;29;20087;-80
2024/02/17 05:35:15;;;;;;;18.13;8.95;;;;;;;;;;4935966;29;20043;-80
2024/02/17 05:37:40;;;;;;;14.95;8.40;;;;;;;;;;4941708;29;20039;-81
2024/02/17 05:40:07;;;;;;;17.75;8.85;;;;;;;;;;4940906;29;20028;-81
2024/02/17 05:42:34;;;;;;;15.73;8.48;;;;;;;;;;4940297;29;20035;-80
2024/02/17 05:45:02;;;;;;;16.55;7.65;;;;;;;;;;4938493;29;20040;-81
2024/02/17 05:47:28;;;;;;;18.35;8.90;;;;;;;;;;4954961;28;20031;-81
2024/02/17 05:49:54;;;;;;;15.10;8.48;;;;;;;;;;4938630;29;20024;-81
2024/02/17 05:52:19;;;;;;;15.55;8.35;;;;;;;;;;4923891;29;20054;-82
2024/02/17 05:54:45;;;;;;;15.45;8.50;;;;;;;;;;4939723;29;20050;-81
2024/02/17 05:57:11;;;;;;;16.25;8.30;;;;;;;;;;4941033;29;20028;-81
2024/02/17 05:59:37;;;;;;;11.23;7.53;;;;;;;;;;4957257;29;20028;-82
2024/02/17 06:02:03;;;;;;;13.40;7.68;;;;;;;;;;4941651;29;20032;-82
2024/02/17 06:04:28;;;;;;;13.57;7.53;;;;;;;;;;4941540;29;20039;-82
2024/02/17 06:06:54;;;;;;;14.48;8.23;;;;;;;;;;4938842;29;20040;-82
2024/02/17 06:09:20;;;;;;;14.13;7.45;;;;;;;;;;4927526;29;20042;-80
2024/02/17 06:11:47;;;;;;;14.00;7.20;;;;;;;;;;4928631;29;20376;-81
2024/02/17 06:14:12;;;;;;;11.43;6.50;;;;;;;;;;4932793;29;20040;-81
2024/02/17 06:16:38;;;;;;;16.02;7.70;;;;;;;;;;4930690;29;20046;-80
2024/02/17 06:21:48;;;;;;;11.95;7.50;;;;;;;;;;4949960;29;20036;-81
2024/02/17 06:24:13;;;;;;;13.13;7.57;;;;;;;;;;4934304;29;20043;-81
2024/02/17 06:26:39;;;;;;;14.52;7.32;;;;;;;;;;4911220;29;20040;-81
2024/02/17 06:29:05;;;;;;;13.30;7.53;;;;;;;;;;4904507;29;20032;-81
2024/02/17 06:31:31;;;;;;;14.80;7.60;;;;;;;;;;4919436;29;20119;-81
2024/02/17 06:33:57;;;;;;;14.55;7.82;;;;;;;;;;4920662;29;20040;-81
2024/02/17 06:36:23;;;;;;;13.63;7.85;;;;;;;;;;4903314;29;20121;-80
2024/02/17 06:38:50;;;;;;;11.40;6.95;;;;;;;;;;4919650;29;20129;-82
2024/02/17 06:41:17;;;;;;;12.67;7.63;;;;;;;;;;4918387;29;20491;-81
2024/02/17 06:43:42;;;;;;;13.65;7.90;;;;;;;;;;4937959;29;20028;-82
2024/02/17 06:46:11;;;;;;;15.43;7.72;;;;;;;;;;4940172;29;20047;-81
2024/02/17 06:48:37;;;;;;;11.90;7.78;;;;;;;;;;4921377;29;20503;-80
2024/02/17 06:51:03;;;;;;;14.63;7.65;;;;;;;;;;4911457;29;20102;-80
2024/02/17 06:53:28;;;;;;;14.10;7.65;;;;;;;;;;4936614;29;20051;-81
2024/02/17 06:55:54;;;;;;;13.70;7.63;;;;;;;;;;4936310;29;20032;-81
2024/02/17 06:58:20;;;;;;;16.58;7.47;;;;;;;;;;4937355;29;20028;-81
2024/02/17 07:00:45;;;;;;;13.57;8.23;;;;;;;;;;4921000;29;20126;-81
2024/02/17 07:03:11;;;;;;;14.52;8.00;;;;;;;;;;4936491;29;20114;-81
2024/02/17 07:05:36;;;;;;;15.68;7.85;;;;;;;;;;4935060;29;20042;-82
2024/02/17 07:08:02;;;;;;;15.18;8.38;;;;;;;;;;4952129;28;20032;-80
2024/02/17 07:10:28;;;;;;;13.75;8.45;;;;;;;;;;4936292;29;20499;-80
2024/02/17 07:12:54;;;;;;;17.30;8.40;;;;;;;;;;4936524;29;20032;-79
2024/02/17 07:15:20;;;;;;;18.48;8.13;;;;;;;;;;4920573;29;20135;-80
2024/02/17 07:17:47;;;;;;;18.13;8.60;;;;;;;;;;4937331;29;20051;-80
2024/02/17 07:20:13;;;;;;;14.68;8.80;;;;;;;;;;4937112;29;20047;-80
2024/02/17 07:22:38;;;;;;;17.23;8.95;;;;;;;;;;4954012;29;20030;-81
2024/02/17 07:25:05;;;;;;;16.50;9.05;;;;;;;;;;4935041;29;20027;-81
2024/02/17 07:27:31;;;;;;;17.75;8.75;;;;;;;;;;4932596;29;20035;-80
2024/02/17 07:29:57;;;;;;;18.20;9.07;;;;;;;;;;4919688;29;20103;-80
2024/02/17 07:32:23;;;;;;;15.32;8.15;;;;;;;;;;4937063;29;20028;-80
2024/02/17 07:34:53;;;;;;;14.30;8.27;;;;;;;;;;4927943;29;20035;-80
2024/02/17 07:37:19;;;;;;;16.60;8.50;;;;;;;;;;4920827;29;20499;-80
2024/02/17 07:39:45;;;;;;;15.43;8.73;;;;;;;;;;4952129;28;20086;-80
2024/02/17 07:42:11;;;;;;;13.45;8.10;;;;;;;;;;4952013;29;20115;-81
2024/02/17 07:44:36;;;;;;;15.27;7.97;;;;;;;;;;4935946;29;20440;-81
2024/02/17 07:47:02;;;;;;;16.08;8.82;;;;;;;;;;4934024;29;20028;-80
2024/02/17 07:49:28;;;;;;;16.73;8.38;;;;;;;;;;4920633;29;20059;-81
2024/02/17 07:51:54;;;;;;;17.42;7.70;;;;;;;;;;4920116;29;20102;-81
2024/02/17 07:54:19;;;;;;;15.57;7.68;;;;;;;;;;4936326;29;20059;-81
2024/02/17 07:56:46;;;;;;;15.25;7.63;;;;;;;;;;4951381;29;20467;-81
2024/02/17 07:59:12;;;;;;;14.45;7.32;;;;;;;;;;4936162;29;20027;-82
2024/02/17 08:01:38;;;;;;;12.30;7.28;;;;;;;;;;4935849;29;20551;-82
2024/02/17 08:04:03;;;;;;;15.18;7.53;;;;;;;;;;4920423;29;20051;-79
2024/02/17 08:06:29;;;;;;;15.65;7.60;;;;;;;;;;4921334;29;20032;-80
2024/02/17 08:08:55;;;;;;;15.65;7.70;;;;;;;;;;4951416;28;20035;-82
2024/02/17 08:11:20;;;;;;;12.35;7.15;;;;;;;;;;4936599;29;20032;-82
2024/02/17 08:13:46;;;;;;;13.73;7.88;;;;;;;;;;4941884;29;20440;-82
2024/02/17 08:16:12;;;;;;;10.95;7.05;;;;;;;;;;4936995;29;20032;-80
2024/02/17 08:18:41;;;;;;;12.65;7.93;;;;;;;;;;4936882;29;20427;-81
2024/02/17 08:21:09;;;;;;;14.75;7.30;;;;;;;;;;4939705;29;20485;-81
2024/02/17 08:23:35;;;;;;;12.60;7.72;;;;;;;;;;4937334;29;20034;-81
2024/02/17 08:26:01;;;;;;;14.45;7.55;;;;;;;;;;4951370;29;21424;-82
2024/02/17 08:28:27;;;;;;;13.85;7.22;;;;;;;;;;4936335;29;20039;-82
2024/02/17 08:30:53;;;;;;;13.70;7.07;;;;;;;;;;4936937;29;20043;-81
2024/02/17 08:33:19;;;;;;;11.27;7.20;;;;;;;;;;4935313;29;20028;-80
2024/02/17 08:35:49;;;;;;;13.63;7.00;;;;;;;;;;4908833;29;20440;-80
2024/02/17 08:38:16;;;;;;;13.60;6.75;;;;;;;;;;4924102;29;20403;-81
2024/02/17 08:40:42;;;;;;;11.18;6.80;;;;;;;;;;4924070;29;20031;-81
2024/02/17 08:43:08;;;;;;;11.98;6.80;;;;;;;;;;4922968;29;20042;-81
2024/02/17 08:45:34;;;;;;;11.95;6.95;;;;;;;;;;4924501;29;20035;-81
2024/02/17 08:48:00;;;;;;;10.85;5.95;;;;;;;;;;4956988;28;20035;-82
2024/02/17 08:50:25;;;;;;;12.15;6.43;;;;;;;;;;4937125;29;20392;-80
2024/02/17 08:52:51;;;;;;;11.52;6.30;;;;;;;;;;4920104;29;20032;-80
2024/02/17 08:55:17;;;;;;;10.63;6.30;;;;;;;;;;4924888;29;20509;-81
2024/02/17 08:57:42;;;;;;;14.18;7.07;;;;;;;;;;4906742;29;20038;-81
2024/02/17 09:00:08;;;;;;;11.20;6.60;;;;;;;;;;4938622;29;20558;-81
2024/02/17 09:02:34;;;;;;;10.93;6.25;;;;;;;;;;4933926;29;20094;-83
2024/02/17 09:05:01;;;;;;;12.38;6.75;;;;;;;;;;4928908;29;20530;-82
2024/02/17 09:07:27;;;;;;;11.38;6.80;;;;;;;;;;4941432;29;20476;-82
2024/02/17 09:09:53;;;;;;;11.77;6.40;;;;;;;;;;4935506;29;20118;-82
2024/02/17 09:12:20;;;;;;;12.18;7.07;;;;;;;;;;4939301;29;20087;-80
2024/02/17 09:14:46;;;;;;;9.35;5.97;;;;;;;;;;4923306;29;20046;-80
2024/02/17 09:17:12;;;;;;;13.02;6.20;;;;;;;;;;4922653;29;20063;-81
2024/02/17 09:19:38;;;;;;;10.38;6.72;;;;;;;;;;4950190;28;20019;-81
2024/02/17 09:22:03;;;;;;;12.77;7.15;;;;;;;;;;4942758;29;20027;-82
2024/02/17 09:24:31;;;;;;;15.05;7.93;;;;;;;;;;4939410;29;20036;-80
2024/02/17 09:27:04;;;;;;;10.38;6.68;;;;;;;;;;4940563;29;20075;-82
2024/02/17 09:29:32;;;;;;;12.05;6.88;;;;;;;;;;4939034;29;20036;-82
2024/02/17 09:31:58;;;;;;;11.38;7.20;;;;;;;;;;4933783;29;20032;-80
2024/02/17 09:34:25;;;;;;;11.00;7.22;;;;;;;;;;4921971;29;20088;-82
2024/02/17 09:36:51;;;;;;;13.10;7.95;;;;;;;;;;4937541;29;20030;-82
2024/02/17 09:39:17;;;;;;;13.57;7.40;;;;;;;;;;4938744;29;20063;-82
2024/02/17 09:41:43;;;;;;;11.13;7.13;;;;;;;;;;4938411;29;20471;-82
2024/02/17 09:44:09;;;;;;;11.70;7.40;;;;;;;;;;4940276;29;20530;-82
2024/02/17 09:46:36;;;;;;;12.77;7.45;;;;;;;;;;4938853;29;20066;-82
2024/02/17 09:49:02;;;;;;;11.75;7.03;;;;;;;;;;4940294;29;20044;-82
2024/02/17 09:51:29;;;;;;;16.40;7.45;;;;;;;;;;4939078;29;20083;-82
2024/02/17 09:53:55;;;;;;;17.23;7.32;;;;;;;;;;4937935;29;20407;-82
2024/02/17 09:56:21;;;;;;;12.68;6.68;;;;;;;;;;4943969;29;20062;-82
2024/02/17 09:58:47;;;;;;;12.93;7.32;;;;;;;;;;4929178;29;20035;-82
2024/02/17 10:01:13;;;;;;;15.32;7.43;;;;;;;;;;4931587;29;20515;-82
2024/02/17 10:03:39;;;;;;;17.45;7.95;;;;;;;;;;4938989;29;20035;-82
2024/02/17 10:06:12;;;;;;;12.23;7.53;;;;;;;;;;4936400;29;20063;-82
2024/02/17 10:08:41;;;;;;;10.45;6.18;;;;;;;;;;4935788;29;20047;-83
2024/02/17 10:11:10;;;;;;;10.85;6.93;;;;;;;;;;4953336;29;20061;-82
2024/02/17 10:13:37;;;;;;;12.30;7.13;;;;;;;;;;4937444;29;20047;-81
2024/02/17 10:16:07;;;;;;;13.05;7.22;;;;;;;;;;4953373;29;20058;-82
2024/02/17 10:18:33;;;;;;;13.68;7.30;;;;;;;;;;4923057;29;20050;-82
2024/02/17 10:20:58;;;;;;;12.07;7.45;;;;;;;;;;4953100;29;20039;-81
2024/02/17 10:23:24;;;;;;;12.75;7.53;;;;;;;;;;4933577;29;20032;-82
2024/02/17 10:25:50;;;;;;;12.45;7.70;;;;;;;;;;4926841;29;20032;-81
2024/02/17 10:28:16;;;;;;;11.55;7.20;;;;;;;;;;4930800;29;20043;-81
2024/02/17 10:30:42;;;;;;;13.55;7.03;;;;;;;;;;4943675;29;20064;-82
2024/02/17 10:33:09;;;;;;;13.75;7.55;;;;;;;;;;4929900;29;20054;-83
2024/02/17 10:35:36;;;;;;;9.77;6.28;;;;;;;;;;4942509;29;20035;-81
2024/02/17 10:38:01;;;;;;;10.65;6.93;;;;;;;;;;4945735;29;20031;-82
2024/02/17 10:40:28;;;;;;;11.07;7.15;;;;;;;;;;4930825;29;20035;-82
2024/02/17 10:42:54;;;;;;;15.90;8.30;;;;;;;;;;4923686;29;20032;-82
2024/02/17 10:45:20;;;;;;;13.85;7.53;;;;;;;;;;4927612;29;20028;-81
2024/02/17 10:47:47;;;;;;;14.05;7.55;;;;;;;;;;4932109;29;20074;-82
2024/02/17 10:50:18;;;;;;;13.95;7.38;;;;;;;;;;4915162;29;20044;-82
2024/02/17 10:52:45;;;;;;;11.63;7.00;;;;;;;;;;4945266;29;20099;-82
2024/02/17 10:55:12;;;;;;;12.02;7.38;;;;;;;;;;4921336;29;20051;-82
2024/02/17 10:57:41;;;;;;;13.52;6.53;;;;;;;;;;4912343;29;20140;-82
2024/02/17 11:00:08;;;;;;;10.75;6.90;;;;;;;;;;4928392;29;20043;-82
2024/02/17 11:02:34;;;;;;;11.50;7.03;;;;;;;;;;4927946;29;20055;-82
2024/02/17 11:05:00;;;;;;;12.48;7.25;;;;;;;;;;4928606;29;20028;-82
2024/02/17 11:07:26;;;;;;;11.13;6.07;;;;;;;;;;4915975;29;20066;-82
2024/02/17 11:10:02;;;;;;;11.95;6.85;;;;;;;;;;4932378;29;20131;-82
2024/02/17 11:12:28;;;;;;;13.68;6.78;;;;;;;;;;4932207;29;20435;-81
2024/02/17 11:15:01;;;;;;;12.77;6.40;;;;;;;;;;4934450;29;20051;-82
2024/02/17 11:17:34;;;;;;;10.18;6.35;;;;;;;;;;4917434;29;20036;-82
2024/02/17 11:20:07;;;;;;;15.60;6.57;;;;;;;;;;4916143;29;20040;-82
2024/02/17 11:22:35;;;;;;;11.90;6.25;;;;;;;;;;4932568;29;20032;-81
2024/02/17 11:25:02;;;;;;;10.23;5.35;;;;;;;;;;4909316;29;20444;-82
2024/02/17 11:27:29;;;;;;;9.63;5.87;;;;;;;;;;4925287;29;20052;-81
2024/02/17 11:30:01;;;;;;;9.15;4.82;;;;;;;;;;4923251;29;20087;-81
2024/02/17 11:32:29;;;;;;;13.52;5.40;;;;;;;;;;4909449;29;20040;-80
2024/02/17 11:34:55;;;;;;;10.23;5.22;;;;;;;;;;4940639;29;20498;-81
2024/02/17 11:37:21;;;;;;;9.25;4.93;;;;;;;;;;4928427;29;20485;-81
2024/02/17 11:39:47;;;;;;;9.52;4.85;;;;;;;;;;4940275;29;20032;-82
2024/02/17 11:42:15;;;;;;;11.95;5.13;;;;;;;;;;4929971;29;20058;-81
2024/02/17 11:44:42;;;;;;;9.35;5.10;;;;;;;;;;4907086;29;20048;-81
2024/02/17 11:47:07;;;;;;;10.38;4.90;;;;;;;;;;4933675;29;20042;-81
2024/02/17 11:49:36;;;;;;;11.23;5.30;;;;;;;;;;4926489;29;20055;-81
2024/02/17 11:52:02;;;;;;;;;;;;;;;;;;4962814;28;20043;-82
2024/02/17 11:54:29;;;;;;;14.48;5.07;;;;;;;;;;4916211;29;19915;-80
2024/02/17 11:56:55;;;;;;;9.75;5.53;;;;;;;;;;4953172;29;20043;-82
2024/02/17 11:59:20;;;;;;;13.57;5.40;;;;;;;;;;4942340;29;20078;-82
2024/02/17 12:01:50;;;;;;;25.75;10.43;;;;;;;;;;4937527;29;20039;-82
2024/02/17 12:04:16;;;;;;;10.70;4.93;;;;;;;;;;4937056;29;20036;-82
2024/02/17 12:06:42;;;;;;;7.97;4.72;;;;;;;;;;4943822;29;20082;-80
2024/02/17 12:09:08;;;;;;;11.75;5.70;;;;;;;;;;4965012;28;20539;-81
2024/02/17 12:11:34;;;;;;;13.50;4.32;;;;;;;;;;4967006;28;20032;-81
2024/02/17 12:14:03;;;;;;;10.57;3.78;;;;;;;;;;4950432;29;20043;-82
2024/02/17 12:16:29;;;;;;;9.45;4.28;;;;;;;;;;4950526;29;20102;-81
2024/02/17 12:18:54;;;;;;;8.68;4.13;;;;;;;;;;4940819;29;20062;-81
2024/02/17 12:21:23;;;;;;;8.23;4.15;;;;;;;;;;4918566;29;20428;-81
2024/02/17 12:23:49;;;;;;;9.00;4.05;;;;;;;;;;4902839;29;20056;-82
2024/02/17 12:26:15;;;;;;;9.20;4.28;;;;;;;;;;4929800;29;20038;-81
2024/02/17 12:28:41;;;;;;;8.50;4.40;;;;;;;;;;4915215;29;20055;-82
2024/02/17 12:31:09;;;;;;;8.68;4.45;;;;;;;;;;4938623;29;20035;-82
2024/02/17 12:33:48;;;;;;;10.20;4.30;;;;;;;;;;4905720;29;20038;-82
2024/02/17 12:36:14;;;;;;;9.48;4.13;;;;;;;;;;4940247;29;20501;-83
2024/02/17 12:38:41;;;;;;;12.20;5.70;;;;;;;;;;4927367;29;20086;-81
2024/02/17 12:41:08;;;;;;;6.38;3.85;;;;;;;;;;4921291;29;20052;-81
2024/02/17 12:43:34;;;;;;;10.07;4.18;;;;;;;;;;4922776;29;20165;-82
2024/02/17 12:45:59;;;;;;;8.23;4.07;;;;;;;;;;4956936;29;20058;-81
2024/02/17 12:48:26;;;;;;;6.82;3.50;;;;;;;;;;4931569;29;20054;-83
2024/02/17 12:50:53;;;;;;;7.43;3.67;;;;;;;;;;4910955;29;20051;-81
2024/02/17 12:53:21;;;;;;;7.72;4.30;;;;;;;;;;4932390;29;20040;-84
2024/02/17 12:55:48;;;;;;;8.13;4.03;;;;;;;;;;4942912;29;20087;-83
2024/02/17 12:58:14;;;;;;;6.90;3.58;;;;;;;;;;4933203;29;20027;-82
2024/02/17 13:00:44;;;;;;;7.10;3.75;;;;;;;;;;4932651;29;20032;-82
2024/02/17 13:03:29;;;;;;;10.82;5.40;;;;;;;;;;4939978;29;20399;-82
2024/02/17 13:05:55;;;;;;;10.25;4.38;;;;;;;;;;4919866;29;20507;-80
2024/02/17 13:08:22;;;;;;;7.22;3.83;;;;;;;;;;4955028;28;20032;-81
2024/02/17 13:10:48;;;;;;;8.70;3.80;;;;;;;;;;4936397;29;20035;-83
2024/02/17 13:13:14;;;;;;;9.82;5.05;;;;;;;;;;4950170;29;20045;-82
2024/02/17 13:15:43;;;;;;;8.82;3.92;;;;;;;;;;4937979;29;20550;-83
2024/02/17 13:18:09;;;;;;;8.88;3.30;;;;;;;;;;4924310;29;20035;-82
2024/02/17 13:20:34;;;;;;;7.97;4.35;;;;;;;;;;4920902;29;20087;-81
2024/02/17 13:23:01;;;;;;;8.98;4.78;;;;;;;;;;4934594;29;20074;-80
2024/02/17 13:25:27;;;;;;;7.30;4.03;;;;;;;;;;4936864;29;20031;-80
2024/02/17 13:27:53;;;;;;;12.80;3.85;;;;;;;;;;4938600;29;20939;-82
2024/02/17 13:30:20;;;;;;;9.18;3.72;;;;;;;;;;4943098;29;20054;-82
2024/02/17 13:32:47;;;;;;;;;;;;;;;;;;4934099;29;20027;-79
2024/02/17 13:35:14;;;;;;;14.95;5.60;;;;;;;;;;4917893;29;19918;-77
2024/02/17 13:37:40;;;;;;;22.52;4.40;;;;;;;;;;4918162;29;20035;-78
2024/02/17 13:40:09;;;;;;;7.13;3.47;;;;;;;;;;4918399;29;20376;-78
2024/02/17 13:42:39;;;;;;;9.02;3.95;;;;;;;;;;4937700;29;20063;-79
2024/02/17 13:45:04;;;;;;;7.95;3.72;;;;;;;;;;4949624;28;20625;-77
2024/02/17 13:47:37;;;;;;;5.93;3.17;;;;;;;;;;4956056;28;20048;-82
2024/02/17 13:50:05;;;;;;;5.28;2.78;;;;;;;;;;4931488;29;20040;-83
2024/02/17 13:52:31;;;;;;;11.63;3.17;;;;;;;;;;4945571;29;20078;-81
2024/02/17 13:54:58;;;;;;;8.50;3.63;;;;;;;;;;4935552;29;20028;-82
2024/02/17 13:57:31;;;;;;;6.57;3.08;;;;;;;;;;4931876;29;20096;-82
2024/02/17 13:59:58;;;;;;;6.50;3.50;;;;;;;;;;4937611;29;20100;-80
2024/02/17 14:02:27;;;;;;;7.00;3.28;;;;;;;;;;4942957;29;20036;-82
2024/02/17 14:04:57;;;;;;;8.05;3.70;;;;;;;;;;4929349;29;20035;-82
2024/02/17 14:07:24;;;;;;;12.25;5.88;;;;;;;;;;4937568;29;20043;-82
2024/02/17 14:09:52;;;;;;;12.35;3.75;;;;;;;;;;4939699;29;20107;-83
2024/02/17 14:12:19;;;;;;;7.22;3.25;;;;;;;;;;4934707;29;20046;-83
2024/02/17 14:14:46;;;;;;;9.52;3.47;;;;;;;;;;4937186;29;20096;-83
2024/02/17 14:17:31;;;;;;;7.63;3.15;;;;;;;;;;4922058;29;20055;-83
2024/02/17 14:20:00;;;;;;;6.75;3.08;;;;;;;;;;4997705;23;20066;-81
2024/02/17 14:22:26;;;;;;;7.70;3.10;;;;;;;;;;4929576;29;20659;-81
2024/02/17 15:13:28;;;;;;;3.08;1.30;;;;;;;;;;5702133;23;20039;-83
2024/02/17 15:16:01;;;;;;;4.47;1.55;;;;;;;;;;4940432;29;20044;-83
2024/02/17 15:18:33;;;;;;;2.90;1.30;;;;;;;;;;4929278;28;20023;-82